createdAt,value
2022-09-30T00:02:09.534Z,19.5
2022-09-30T00:04:40.666Z,19.5
2022-09-30T00:07:12.089Z,19.5
2022-09-30T00:09:43.573Z,19.5
2022-09-30T00:12:14.568Z,19.5
2022-09-30T00:14:46.193Z,19.6
2022-09-30T00:17:17.587Z,19.6
2022-09-30T00:19:50.588Z,19.6
2022-09-30T00:22:22.088Z,19.5
2022-09-30T00:24:53.044Z,19.5
2022-09-30T00:27:24.357Z,19.6
2022-09-30T00:29:55.674Z,19.6
2022-09-30T00:32:26.474Z,19.7
2022-09-30T00:34:58.101Z,19.6
2022-09-30T00:37:29.205Z,19.6
2022-09-30T00:40:00.396Z,19.5
2022-09-30T00:42:31.791Z,19.5
2022-09-30T00:45:02.620Z,19.5
2022-09-30T00:47:33.976Z,19.4
2022-09-30T00:50:05.640Z,19.3
2022-09-30T00:52:36.847Z,19.3
2022-09-30T00:55:08.572Z,19.4
2022-09-30T00:57:40.060Z,19.5
2022-09-30T01:00:11.136Z,19.5
2022-09-30T01:02:42.227Z,19.4
2022-09-30T01:05:13.220Z,19.4
2022-09-30T01:07:44.697Z,19.3
2022-09-30T01:10:16.028Z,19.2
2022-09-30T01:12:47.846Z,19.3
2022-09-30T01:15:20.121Z,19.3
2022-09-30T01:17:51.729Z,19.3
2022-09-30T01:20:22.666Z,19.3
2022-09-30T01:22:54.872Z,19.2
2022-09-30T01:25:28.321Z,19.1
2022-09-30T01:28:00.524Z,19
2022-09-30T01:30:32.873Z,19
2022-09-30T01:33:04.499Z,19.1
2022-09-30T01:35:37.748Z,19
2022-09-30T01:38:10.533Z,19.1
2022-09-30T01:40:42.277Z,19.1
2022-09-30T01:43:13.219Z,19
2022-09-30T01:45:44.935Z,19
2022-09-30T01:48:17.471Z,18.9
2022-09-30T01:50:49.609Z,18.9
2022-09-30T01:53:21.311Z,18.9
2022-09-30T01:55:52.591Z,18.9
2022-09-30T01:58:24.871Z,18.9
2022-09-30T02:00:54.689Z,18.9
2022-09-30T02:03:25.616Z,18.8
2022-09-30T02:05:57.231Z,18.8
2022-09-30T02:08:28.377Z,18.7
2022-09-30T02:10:59.347Z,18.6
2022-09-30T02:13:31.913Z,18.7
2022-09-30T02:16:03.629Z,18.8
2022-09-30T02:18:35.060Z,18.9
2022-09-30T02:21:07.204Z,18.7
2022-09-30T02:23:39.042Z,18.7
2022-09-30T02:26:10.713Z,18.7
2022-09-30T02:28:42.245Z,18.7
2022-09-30T02:31:12.488Z,18.8
2022-09-30T02:33:44.183Z,18.9
2022-09-30T02:36:15.574Z,18.9
2022-09-30T02:38:46.731Z,19
2022-09-30T02:41:18.342Z,19
2022-09-30T02:43:48.783Z,19
2022-09-30T02:46:21.578Z,18.8
2022-09-30T02:48:54.963Z,18.9
2022-09-30T02:51:27.060Z,18.8
2022-09-30T02:54:01.359Z,18.8
2022-09-30T02:56:32.927Z,18.9
2022-09-30T02:59:04.127Z,18.9
2022-09-30T03:01:36.375Z,18.8
2022-09-30T03:04:08.075Z,18.9
2022-09-30T03:06:39.502Z,18.9
2022-09-30T03:09:10.814Z,18.9
2022-09-30T03:11:42.415Z,19
2022-09-30T03:14:14.481Z,19
2022-09-30T03:16:46.312Z,19
2022-09-30T03:19:21.250Z,19
2022-09-30T03:21:52.675Z,19
2022-09-30T03:24:24.024Z,18.9
2022-09-30T03:26:55.688Z,18.9
2022-09-30T03:29:28.189Z,18.7
2022-09-30T03:32:00.527Z,18.8
2022-09-30T03:34:32.618Z,18.7
2022-09-30T03:37:05.080Z,18.8
2022-09-30T03:39:37.369Z,18.9
2022-09-30T03:42:08.749Z,19
2022-09-30T03:44:39.591Z,19.1
2022-09-30T03:47:10.623Z,19.1
2022-09-30T03:49:41.866Z,19.1
2022-09-30T03:52:13.660Z,19.2
2022-09-30T03:54:44.821Z,19
2022-09-30T03:57:14.207Z,19.1
2022-09-30T03:59:44.980Z,19
2022-09-30T04:02:16.642Z,19.1
2022-09-30T04:04:48.391Z,19.1
2022-09-30T04:07:18.029Z,19.1
2022-09-30T04:09:49.814Z,19
2022-09-30T04:12:21.656Z,19.1
2022-09-30T04:14:53.633Z,19.1
2022-09-30T04:17:24.966Z,19.1
2022-09-30T04:19:55.595Z,19.1
2022-09-30T04:22:27.703Z,19.1
2022-09-30T04:24:57.670Z,19
2022-09-30T04:27:28.659Z,19
2022-09-30T04:30:00.326Z,19
2022-09-30T04:32:32.481Z,19.1
2022-09-30T04:35:03.716Z,19.1
2022-09-30T04:37:35.300Z,19.1
2022-09-30T04:40:06.528Z,19.2
2022-09-30T04:42:38.117Z,19.2
2022-09-30T04:45:09.588Z,19.3
2022-09-30T04:47:43.248Z,19.3
2022-09-30T04:50:14.923Z,19
2022-09-30T04:52:47.067Z,19.1
2022-09-30T04:55:18.215Z,19.1
2022-09-30T04:57:48.687Z,19
2022-09-30T05:00:21.447Z,19
2022-09-30T05:02:52.323Z,19.1
2022-09-30T05:05:23.876Z,19
2022-09-30T05:07:55.518Z,19
2022-09-30T05:10:28.667Z,18.9
2022-09-30T05:13:00.409Z,18.7
2022-09-30T05:15:33.105Z,18.7
2022-09-30T05:18:03.979Z,18.8
2022-09-30T05:20:36.365Z,18.8
2022-09-30T05:23:07.694Z,18.9
2022-09-30T05:25:39.766Z,19
2022-09-30T05:28:11.527Z,18.9
2022-09-30T05:30:42.499Z,18.9
2022-09-30T05:33:14.103Z,18.9
2022-09-30T05:35:46.271Z,18.9
2022-09-30T05:38:18.212Z,19
2022-09-30T05:40:49.814Z,19.1
2022-09-30T05:43:21.670Z,19
2022-09-30T05:45:53.045Z,19
2022-09-30T05:48:24.806Z,18.9
2022-09-30T05:50:57.204Z,19
2022-09-30T05:53:28.746Z,18.9
2022-09-30T05:55:59.804Z,18.9
2022-09-30T05:58:31.822Z,19.1
2022-09-30T06:01:08.118Z,19.2
2022-09-30T06:03:34.247Z,19.2
2022-09-30T06:06:05.497Z,19.3
2022-09-30T06:08:37.917Z,19.5
2022-09-30T06:11:09.723Z,19.6
2022-09-30T06:13:42.183Z,19.6
2022-09-30T06:16:14.109Z,19.7
2022-09-30T06:18:45.553Z,19.8
2022-09-30T06:21:16.723Z,20
2022-09-30T06:23:47.451Z,20.1
2022-09-30T06:26:22.405Z,20.2
2022-09-30T06:28:53.755Z,20.3
2022-09-30T06:31:24.516Z,20.3
2022-09-30T06:33:55.366Z,20.5
2022-09-30T06:36:29.267Z,20.6
2022-09-30T06:39:00.610Z,20.6
2022-09-30T06:41:31.889Z,20.6
2022-09-30T06:44:02.932Z,20.7
2022-09-30T06:46:35.601Z,20.8
2022-09-30T06:49:13.209Z,20.9
2022-09-30T06:51:37.976Z,21
2022-09-30T06:54:08.893Z,21
2022-09-30T06:56:40.624Z,21
2022-09-30T06:59:12.197Z,21.2
2022-09-30T07:01:43.762Z,21.1
2022-09-30T07:04:14.950Z,21.2
2022-09-30T07:06:45.828Z,21.1
2022-09-30T07:09:17.353Z,21.2
2022-09-30T07:11:48.667Z,21.2
2022-09-30T07:14:20.348Z,21.2
2022-09-30T07:16:51.882Z,21.2
2022-09-30T07:19:23.241Z,21.2
2022-09-30T07:21:54.390Z,21.3
2022-09-30T07:24:25.449Z,21.3
2022-09-30T07:26:57.326Z,21.4
2022-09-30T07:29:36.628Z,21.4
2022-09-30T07:32:00.155Z,21.4
2022-09-30T07:34:31.332Z,21.5
2022-09-30T07:37:02.662Z,21.6
2022-09-30T07:39:34.691Z,21.7
2022-09-30T07:42:04.883Z,21.8
2022-09-30T07:44:37.248Z,21.9
2022-09-30T07:47:08.576Z,21.9
2022-09-30T07:49:40.347Z,22
2022-09-30T07:52:11.926Z,22
2022-09-30T07:54:48.200Z,22
2022-09-30T07:57:15.692Z,22
2022-09-30T07:59:47.265Z,22
2022-09-30T08:02:18.866Z,21.8
2022-09-30T08:04:50.414Z,21.9
2022-09-30T08:07:22.171Z,22
2022-09-30T08:09:53.536Z,22.1
2022-09-30T08:12:24.567Z,22
2022-09-30T08:14:56.441Z,22.2
2022-09-30T08:17:29.119Z,22.2
2022-09-30T08:20:02.497Z,22.3
2022-09-30T08:22:32.568Z,22.4
2022-09-30T08:25:03.430Z,22.5
2022-09-30T08:27:34.578Z,22.6
2022-09-30T08:30:06.478Z,22.6
2022-09-30T08:32:37.338Z,22.7
2022-09-30T08:35:08.360Z,22.7
2022-09-30T08:37:39.180Z,22.8
2022-09-30T08:40:11.039Z,22.9
2022-09-30T08:42:45.906Z,22.9
2022-09-30T08:45:13.345Z,23
2022-09-30T08:47:44.487Z,23.1
2022-09-30T08:50:15.736Z,23.1
2022-09-30T08:52:49.218Z,23.1
2022-09-30T08:55:18.130Z,23.1
2022-09-30T08:57:49.263Z,23.1
2022-09-30T09:00:20.653Z,23.3
2022-09-30T09:02:51.908Z,23.4
2022-09-30T09:05:22.609Z,23.2
2022-09-30T09:07:58.841Z,23.4
2022-09-30T09:10:30.036Z,23.5
2022-09-30T09:13:01.636Z,23.5
2022-09-30T09:15:32.609Z,23.6
2022-09-30T09:18:22.412Z,23.8
2022-09-30T09:20:34.435Z,23.8
2022-09-30T09:23:06.473Z,23.8
2022-09-30T09:25:38.149Z,24.1
2022-09-30T09:28:10.055Z,24.2
2022-09-30T09:30:39.909Z,24.3
2022-09-30T09:33:11.250Z,24.4
2022-09-30T09:35:41.983Z,24.5
2022-09-30T09:38:13.645Z,24.6
2022-09-30T09:40:44.737Z,24.7
2022-09-30T09:43:15.951Z,24.9
2022-09-30T09:45:47.048Z,25
2022-09-30T09:48:18.450Z,25.1
2022-09-30T09:50:50.073Z,25.2
2022-09-30T09:53:21.810Z,25.3
2022-09-30T09:55:53.049Z,25.3
2022-09-30T09:58:24.005Z,25.4
2022-09-30T10:00:54.911Z,25.5
2022-09-30T10:03:27.143Z,25.6
2022-09-30T10:05:58.637Z,25.7
2022-09-30T10:08:29.294Z,25.8
2022-09-30T10:11:00.470Z,25.9
2022-09-30T10:13:31.427Z,26.1
2022-09-30T10:16:02.402Z,26.2
2022-09-30T10:18:33.367Z,26.2
2022-09-30T10:21:04.200Z,26.2
2022-09-30T10:23:35.230Z,26.3
2022-09-30T10:26:06.664Z,26.4
2022-09-30T10:28:37.724Z,26.4
2022-09-30T10:31:06.776Z,26.5
2022-09-30T10:33:37.861Z,26.5
2022-09-30T10:36:08.324Z,26.5
2022-09-30T10:41:10.868Z,26.5
2022-09-30T10:43:41.785Z,26.6
2022-09-30T10:46:25.605Z,26.7
2022-09-30T10:48:44.981Z,26.6
2022-09-30T10:51:15.970Z,26.8
2022-09-30T10:53:47.518Z,26.8
2022-09-30T10:56:18.926Z,27
2022-09-30T10:58:50.806Z,27
2022-09-30T11:01:22.505Z,27.2
2022-09-30T11:03:53.157Z,27.2
2022-09-30T11:06:22.782Z,27.3
2022-09-30T11:08:53.848Z,27.3
2022-09-30T11:11:24.678Z,27.4
2022-09-30T11:13:55.092Z,27.4
2022-09-30T11:16:26.441Z,27.4
2022-09-30T11:18:58.960Z,27.5
2022-09-30T11:21:29.761Z,27.5
2022-09-30T11:24:01.304Z,27.5
2022-09-30T11:26:31.770Z,27.4
2022-09-30T11:29:02.606Z,27.5
2022-09-30T11:31:34.137Z,27.5
2022-09-30T11:34:06.237Z,27.4
2022-09-30T11:36:42.256Z,27.3
2022-09-30T11:39:09.174Z,27.2
2022-09-30T11:41:40.312Z,27.1
2022-09-30T11:44:11.027Z,27
2022-09-30T11:46:42.051Z,27
2022-09-30T11:49:12.963Z,26.9
2022-09-30T11:51:43.787Z,26.9
2022-09-30T11:54:14.658Z,26.9
2022-09-30T11:56:44.975Z,26.8
2022-09-30T11:59:15.861Z,26.9
2022-09-30T12:01:48.374Z,26.8
2022-09-30T12:06:50.097Z,26.9
2022-09-30T12:09:20.798Z,26.9
2022-09-30T12:11:51.695Z,26.8
2022-09-30T12:14:22.695Z,26.7
2022-09-30T12:16:53.701Z,26.7
2022-09-30T12:19:32.480Z,26.7
2022-09-30T12:22:03.238Z,26.6
2022-09-30T12:24:34.170Z,26.6
2022-09-30T12:27:05.273Z,26.7
2022-09-30T12:29:36.478Z,26.8
2022-09-30T12:32:07.058Z,27
2022-09-30T12:34:38.440Z,26.9
2022-09-30T12:37:09.342Z,27
2022-09-30T12:39:40.232Z,27.1
2022-09-30T12:42:11.217Z,27.2
2022-09-30T12:44:41.697Z,27.2
2022-09-30T12:47:12.629Z,27.1
2022-09-30T12:49:44.897Z,27
2022-09-30T12:52:16.826Z,27.1
2022-09-30T12:54:48.333Z,27.3
2022-09-30T12:57:19.348Z,27.3
2022-09-30T12:59:50.258Z,27.2
2022-09-30T13:02:21.695Z,27.1
2022-09-30T13:04:52.399Z,27
2022-09-30T13:07:23.681Z,27
2022-09-30T13:09:54.195Z,26.9
2022-09-30T13:12:25.058Z,27
2022-09-30T13:14:56.126Z,27.1
2022-09-30T13:17:28.211Z,27.1
2022-09-30T13:19:59.634Z,27.1
2022-09-30T13:22:30.822Z,27
2022-09-30T13:25:01.231Z,27.1
2022-09-30T13:30:04.897Z,27
2022-09-30T13:32:36.589Z,27
2022-09-30T13:35:07.829Z,26.9
2022-09-30T13:37:39.177Z,26.8
2022-09-30T13:40:13.251Z,26.8
2022-09-30T13:42:45.871Z,26.7
2022-09-30T13:45:17.561Z,26.6
2022-09-30T13:47:48.460Z,26.5
2022-09-30T13:50:18.295Z,26.5
2022-09-30T13:52:49.455Z,26.5
2022-09-30T13:55:20.719Z,26.3
2022-09-30T13:57:51.670Z,26.4
2022-09-30T14:00:23.733Z,26.3
2022-09-30T14:02:54.662Z,26.3
2022-09-30T14:05:25.910Z,26.3
2022-09-30T14:07:56.381Z,26.4
2022-09-30T14:10:28.375Z,26.4
2022-09-30T14:12:59.345Z,26.5
2022-09-30T14:15:28.881Z,26.4
2022-09-30T14:18:00.401Z,26.4
2022-09-30T14:20:31.999Z,26.3
2022-09-30T14:23:03.419Z,26.4
2022-09-30T14:25:34.292Z,26.3
2022-09-30T14:28:06.349Z,26.2
2022-09-30T14:30:38.314Z,26.2
2022-09-30T14:33:09.269Z,26.2
2022-09-30T14:35:41.250Z,26
2022-09-30T14:38:12.599Z,26
2022-09-30T14:40:42.668Z,26
2022-09-30T14:43:13.966Z,25.9
2022-09-30T14:45:45.148Z,25.8
2022-09-30T14:48:16.179Z,25.8
2022-09-30T14:50:47.218Z,25.8
2022-09-30T14:53:18.469Z,25.8
2022-09-30T14:55:49.554Z,25.9
2022-09-30T14:58:22.911Z,25.8
2022-09-30T15:00:54.297Z,25.8
2022-09-30T15:03:26.018Z,25.9
2022-09-30T15:05:58.148Z,25.8
2022-09-30T15:08:29.307Z,25.8
2022-09-30T15:11:00.539Z,25.9
2022-09-30T15:13:31.607Z,25.8
2022-09-30T15:16:04.528Z,25.5
2022-09-30T15:18:36.454Z,25.6
2022-09-30T15:21:07.859Z,25.5
2022-09-30T15:23:39.644Z,25.4
2022-09-30T15:26:11.229Z,25.4
2022-09-30T15:28:42.157Z,25.4
2022-09-30T15:31:13.414Z,25.4
2022-09-30T15:33:45.045Z,25.4
2022-09-30T15:36:16.349Z,25.3
2022-09-30T15:38:48.197Z,25.2
2022-09-30T15:41:19.528Z,25.3
2022-09-30T15:43:51.497Z,25.3
2022-09-30T15:46:23.807Z,25.3
2022-09-30T15:48:55.450Z,25.3
2022-09-30T15:51:26.891Z,25.2
2022-09-30T15:53:58.808Z,25.2
2022-09-30T15:56:32.204Z,25.1
2022-09-30T15:59:04.084Z,25
2022-09-30T16:01:35.344Z,25.1
2022-09-30T16:04:07.166Z,24.9
2022-09-30T16:06:38.613Z,24.9
2022-09-30T16:09:12.254Z,24.9
2022-09-30T16:11:43.441Z,24.9
2022-09-30T16:14:14.869Z,24.7
2022-09-30T16:16:46.169Z,24.8
2022-09-30T16:19:17.669Z,24.7
2022-09-30T16:21:49.139Z,24.5
2022-09-30T16:24:21.130Z,24.6
2022-09-30T16:26:53.152Z,24.5
2022-09-30T16:29:24.895Z,24.6
2022-09-30T16:31:56.761Z,24.6
2022-09-30T16:34:28.747Z,24.5
2022-09-30T16:37:01.000Z,24.6
2022-09-30T16:39:32.190Z,24.6
2022-09-30T16:42:03.765Z,24.5
2022-09-30T16:44:34.871Z,24.5
2022-09-30T16:47:06.489Z,24.4
2022-09-30T16:49:37.687Z,24.5
2022-09-30T16:52:12.672Z,24.1
2022-09-30T16:54:44.532Z,24
2022-09-30T16:57:18.303Z,23.9
2022-09-30T16:59:51.047Z,23.8
2022-09-30T17:02:22.725Z,23.9
2022-09-30T17:04:53.935Z,24.1
2022-09-30T17:07:25.413Z,24
2022-09-30T17:09:58.121Z,24.1
2022-09-30T17:12:29.783Z,24.1
2022-09-30T17:15:01.260Z,24.1
2022-09-30T17:17:32.998Z,24.1
2022-09-30T17:20:06.782Z,24.1
2022-09-30T17:22:38.740Z,24
2022-09-30T17:25:10.486Z,23.8
2022-09-30T17:27:42.448Z,23.8
2022-09-30T17:30:13.901Z,23.8
2022-09-30T17:32:45.653Z,23.9
2022-09-30T17:35:18.366Z,23.9
2022-09-30T17:37:50.038Z,23.9
2022-09-30T17:40:21.811Z,23.8
2022-09-30T17:42:56.767Z,23.8
2022-09-30T17:45:25.867Z,23.7
2022-09-30T17:47:57.477Z,23.8
2022-09-30T17:50:28.983Z,23.8
2022-09-30T17:53:00.179Z,23.8
2022-09-30T17:55:34.506Z,23.7
2022-09-30T17:58:06.423Z,23.8
2022-09-30T18:00:37.795Z,23.7
2022-09-30T18:03:09.500Z,23.8
2022-09-30T18:05:40.993Z,23.8
2022-09-30T18:08:13.917Z,23.7
2022-09-30T18:10:46.190Z,23.5
2022-09-30T18:13:17.970Z,23.6
2022-09-30T18:15:49.801Z,23.5
2022-09-30T18:18:21.940Z,23.4
2022-09-30T18:20:53.378Z,23.5
2022-09-30T18:23:24.998Z,23.5
2022-09-30T18:25:56.307Z,23.4
2022-09-30T18:28:28.709Z,23.3
2022-09-30T18:31:00.369Z,23.4
2022-09-30T18:33:31.894Z,23.3
2022-09-30T18:36:03.294Z,23.4
2022-09-30T18:38:35.090Z,23.3
2022-09-30T18:41:06.969Z,23.3
2022-09-30T18:43:39.227Z,23.2
2022-09-30T18:46:11.160Z,23
2022-09-30T18:48:43.195Z,23.2
2022-09-30T18:51:14.739Z,23
2022-09-30T18:53:47.762Z,23.1
2022-09-30T18:56:19.195Z,23
2022-09-30T18:58:51.423Z,23
2022-09-30T19:01:23.390Z,22.8
2022-09-30T19:03:55.125Z,22.8
2022-09-30T19:06:26.475Z,22.8
2022-09-30T19:08:59.492Z,22.8
2022-09-30T19:11:31.545Z,22.7
2022-09-30T19:14:03.101Z,22.7
2022-09-30T19:16:38.898Z,22.6
2022-09-30T19:19:09.339Z,22.5
2022-09-30T19:21:40.809Z,22.5
2022-09-30T19:24:13.229Z,22.6
2022-09-30T19:26:45.039Z,22.5
2022-09-30T19:29:16.762Z,22.5
2022-09-30T19:31:48.233Z,22.5
2022-09-30T19:34:28.158Z,22.5
2022-09-30T19:36:52.604Z,22.4
2022-09-30T19:39:26.626Z,22.3
2022-09-30T19:41:59.186Z,22.3
2022-09-30T19:44:30.503Z,22.3
2022-09-30T19:47:02.159Z,22.3
2022-09-30T19:49:34.350Z,22.2
2022-09-30T19:52:14.497Z,22.1
2022-09-30T19:54:41.709Z,22.2
2022-09-30T19:57:08.931Z,22.1
2022-09-30T19:59:40.092Z,22.2
2022-09-30T20:02:11.897Z,22.1
2022-09-30T20:04:44.059Z,22.2
2022-09-30T20:07:15.453Z,22
2022-09-30T20:09:47.062Z,22.1
2022-09-30T20:12:20.223Z,22
2022-09-30T20:14:52.240Z,22.1
2022-09-30T20:17:25.078Z,22
2022-09-30T20:19:56.901Z,21.9
2022-09-30T20:22:29.243Z,22
2022-09-30T20:24:59.983Z,21.8
2022-09-30T20:27:31.595Z,21.7
2022-09-30T20:30:03.931Z,21.7
2022-09-30T20:32:35.710Z,21.6
2022-09-30T20:35:08.222Z,21.7
2022-09-30T20:37:40.531Z,21.5
2022-09-30T20:40:10.675Z,21.5
2022-09-30T20:42:41.784Z,21.5
2022-09-30T20:45:14.091Z,21.5
2022-09-30T20:47:45.757Z,21.6
2022-09-30T20:50:18.486Z,21.5
2022-09-30T20:52:50.351Z,21.5
2022-09-30T20:55:22.704Z,21.5
2022-09-30T20:57:54.559Z,21.5
2022-09-30T21:00:25.378Z,21.6
2022-09-30T21:03:02.074Z,21.6
2022-09-30T21:05:33.630Z,21.6
2022-09-30T21:08:05.531Z,21.5
2022-09-30T21:10:42.461Z,21.6
2022-09-30T21:13:15.816Z,21.7
2022-09-30T21:15:47.053Z,21.7
2022-09-30T21:18:18.686Z,21.7
2022-09-30T21:20:50.239Z,21.6
2022-09-30T21:23:22.351Z,21.6
2022-09-30T21:25:54.520Z,21.8
2022-09-30T21:28:26.353Z,21.7
2022-09-30T21:30:59.093Z,21.5
2022-09-30T21:33:30.779Z,21.5
2022-09-30T21:36:02.383Z,21.6
2022-09-30T21:38:33.941Z,21.6
2022-09-30T21:43:40.185Z,21.5
2022-09-30T21:46:12.358Z,21.3
2022-09-30T21:48:44.966Z,21.2
2022-09-30T21:51:16.656Z,21.3
2022-09-30T21:53:47.988Z,21.4
2022-09-30T21:56:19.980Z,21.4
2022-09-30T21:58:51.858Z,21.4
2022-09-30T22:01:23.931Z,21.3
2022-09-30T22:03:55.919Z,21.2
2022-09-30T22:06:26.618Z,21.4
2022-09-30T22:08:58.621Z,21.3
2022-09-30T22:11:36.786Z,21.3
2022-09-30T22:14:07.724Z,21.2
2022-09-30T22:16:39.610Z,21.1
2022-09-30T22:19:09.888Z,21.1
2022-09-30T22:21:41.092Z,21.2
2022-09-30T22:24:12.419Z,21.2
2022-09-30T22:26:43.534Z,21.1
2022-09-30T22:29:14.610Z,21
2022-09-30T22:31:46.111Z,21
2022-09-30T22:34:17.382Z,21.1
2022-09-30T22:36:48.548Z,21.1
2022-09-30T22:39:19.838Z,21.1
2022-09-30T22:41:51.370Z,21.1
2022-09-30T22:44:22.346Z,21.1
2022-09-30T22:46:53.542Z,21.1
2022-09-30T22:49:24.861Z,21.1
2022-09-30T22:51:55.963Z,21
2022-09-30T22:54:27.055Z,20.8
2022-09-30T22:56:59.606Z,20.9
2022-09-30T22:59:30.807Z,20.9
2022-09-30T23:02:02.357Z,20.8
2022-09-30T23:04:33.746Z,20.9
2022-09-30T23:07:06.752Z,20.8
2022-09-30T23:09:39.696Z,20.8
2022-09-30T23:12:11.273Z,20.6
2022-09-30T23:14:43.251Z,20.8
2022-09-30T23:17:14.856Z,20.7
2022-09-30T23:19:46.594Z,20.7
2022-09-30T23:22:17.835Z,20.6
2022-09-30T23:24:47.298Z,20.6
2022-09-30T23:27:18.389Z,20.6
2022-09-30T23:29:49.848Z,20.4
2022-09-30T23:32:21.506Z,20.5
2022-09-30T23:34:53.067Z,20.4
2022-09-30T23:37:24.073Z,20.4
2022-09-30T23:39:55.371Z,20.5
2022-09-30T23:42:26.706Z,20.5
2022-09-30T23:44:58.523Z,20.5
2022-09-30T23:47:30.062Z,20.4
2022-09-30T23:50:01.596Z,20.4
2022-09-30T23:52:33.783Z,20.4
2022-09-30T23:55:06.663Z,20.4
2022-09-30T23:57:39.963Z,20.4
